sensor_id;sensor_type;location;lat;lon;timestamp;temperature;humidity
81311;DHT22;70779;52.506;5.492;2024-01-07T00:02:03;3.50;68.60
81311;DHT22;70779;52.506;5.492;2024-01-07T00:04:30;3.50;68.60
81311;DHT22;70779;52.506;5.492;2024-01-07T00:06:56;3.50;68.70
81311;DHT22;70779;52.506;5.492;2024-01-07T00:09:22;3.50;68.70
81311;DHT22;70779;52.506;5.492;2024-01-07T00:11:48;3.40;69.00
81311;DHT22;70779;52.506;5.492;2024-01-07T00:14:15;3.30;69.30
81311;DHT22;70779;52.506;5.492;2024-01-07T00:16:41;3.30;69.70
81311;DHT22;70779;52.506;5.492;2024-01-07T00:19:07;3.20;69.90
81311;DHT22;70779;52.506;5.492;2024-01-07T00:21:34;3.20;70.30
81311;DHT22;70779;52.506;5.492;2024-01-07T00:24:00;3.10;70.50
81311;DHT22;70779;52.506;5.492;2024-01-07T00:26:26;3.10;70.80
81311;DHT22;70779;52.506;5.492;2024-01-07T00:28:52;3.10;71.00
81311;DHT22;70779;52.506;5.492;2024-01-07T00:31:19;3.10;71.20
81311;DHT22;70779;52.506;5.492;2024-01-07T00:33:45;3.10;71.10
81311;DHT22;70779;52.506;5.492;2024-01-07T00:36:11;3.10;71.10
81311;DHT22;70779;52.506;5.492;2024-01-07T00:38:37;3.10;71.20
81311;DHT22;70779;52.506;5.492;2024-01-07T00:41:03;3.10;71.20
81311;DHT22;70779;52.506;5.492;2024-01-07T00:43:31;3.20;71.40
81311;DHT22;70779;52.506;5.492;2024-01-07T00:45:57;3.20;71.40
81311;DHT22;70779;52.506;5.492;2024-01-07T00:48:23;3.30;71.20
81311;DHT22;70779;52.506;5.492;2024-01-07T00:50:49;3.30;71.20
81311;DHT22;70779;52.506;5.492;2024-01-07T00:53:15;3.30;71.10
81311;DHT22;70779;52.506;5.492;2024-01-07T00:55:41;3.20;71.00
81311;DHT22;70779;52.506;5.492;2024-01-07T00:58:07;3.20;71.10
81311;DHT22;70779;52.506;5.492;2024-01-07T01:00:33;3.30;71.20
81311;DHT22;70779;52.506;5.492;2024-01-07T01:02:59;3.30;71.20
81311;DHT22;70779;52.506;5.492;2024-01-07T01:05:26;3.30;71.20
81311;DHT22;70779;52.506;5.492;2024-01-07T01:07:52;3.30;71.20
81311;DHT22;70779;52.506;5.492;2024-01-07T01:10:18;3.30;71.00
81311;DHT22;70779;52.506;5.492;2024-01-07T01:12:44;3.30;71.00
81311;DHT22;70779;52.506;5.492;2024-01-07T01:15:10;3.30;71.10
81311;DHT22;70779;52.506;5.492;2024-01-07T01:17:37;3.30;71.00
81311;DHT22;70779;52.506;5.492;2024-01-07T01:20:03;3.30;71.00
81311;DHT22;70779;52.506;5.492;2024-01-07T01:22:29;3.30;70.80
81311;DHT22;70779;52.506;5.492;2024-01-07T01:24:55;3.30;70.80
81311;DHT22;70779;52.506;5.492;2024-01-07T01:27:21;3.30;70.90
81311;DHT22;70779;52.506;5.492;2024-01-07T01:29:47;3.20;71.00
81311;DHT22;70779;52.506;5.492;2024-01-07T01:32:13;3.20;70.90
81311;DHT22;70779;52.506;5.492;2024-01-07T01:34:40;3.10;70.90
81311;DHT22;70779;52.506;5.492;2024-01-07T01:37:08;3.10;71.00
81311;DHT22;70779;52.506;5.492;2024-01-07T01:39:34;3.10;71.10
81311;DHT22;70779;52.506;5.492;2024-01-07T01:42:00;3.10;71.00
81311;DHT22;70779;52.506;5.492;2024-01-07T01:44:26;3.10;71.00
81311;DHT22;70779;52.506;5.492;2024-01-07T01:46:57;3.10;70.70
81311;DHT22;70779;52.506;5.492;2024-01-07T01:49:24;3.10;70.40
81311;DHT22;70779;52.506;5.492;2024-01-07T01:51:51;3.10;70.60
81311;DHT22;70779;52.506;5.492;2024-01-07T01:54:20;3.10;70.70
81311;DHT22;70779;52.506;5.492;2024-01-07T01:56:47;3.10;70.70
81311;DHT22;70779;52.506;5.492;2024-01-07T01:59:14;3.10;70.70
81311;DHT22;70779;52.506;5.492;2024-01-07T02:01:41;3.10;70.50
81311;DHT22;70779;52.506;5.492;2024-01-07T02:04:07;3.10;70.20
81311;DHT22;70779;52.506;5.492;2024-01-07T02:06:34;3.10;70.20
81311;DHT22;70779;52.506;5.492;2024-01-07T02:09:01;3.10;70.30
81311;DHT22;70779;52.506;5.492;2024-01-07T02:11:27;3.10;70.10
81311;DHT22;70779;52.506;5.492;2024-01-07T02:13:53;3.10;70.00
81311;DHT22;70779;52.506;5.492;2024-01-07T02:16:19;3.10;70.10
81311;DHT22;70779;52.506;5.492;2024-01-07T02:18:46;3.10;70.30
81311;DHT22;70779;52.506;5.492;2024-01-07T02:21:15;3.10;70.50
81311;DHT22;70779;52.506;5.492;2024-01-07T02:23:41;3.20;70.20
81311;DHT22;70779;52.506;5.492;2024-01-07T02:26:07;3.20;69.90
81311;DHT22;70779;52.506;5.492;2024-01-07T02:28:33;3.20;69.80
81311;DHT22;70779;52.506;5.492;2024-01-07T02:31:00;3.10;70.00
81311;DHT22;70779;52.506;5.492;2024-01-07T02:33:26;3.10;70.10
81311;DHT22;70779;52.506;5.492;2024-01-07T02:35:52;3.10;70.30
81311;DHT22;70779;52.506;5.492;2024-01-07T02:38:18;3.00;70.70
81311;DHT22;70779;52.506;5.492;2024-01-07T02:40:44;3.00;71.10
81311;DHT22;70779;52.506;5.492;2024-01-07T02:43:10;3.00;71.30
81311;DHT22;70779;52.506;5.492;2024-01-07T02:45:36;3.00;71.30
81311;DHT22;70779;52.506;5.492;2024-01-07T02:48:02;2.90;71.50
81311;DHT22;70779;52.506;5.492;2024-01-07T02:50:28;2.90;71.80
81311;DHT22;70779;52.506;5.492;2024-01-07T02:52:54;2.90;71.80
81311;DHT22;70779;52.506;5.492;2024-01-07T02:55:20;2.90;71.90
81311;DHT22;70779;52.506;5.492;2024-01-07T02:57:46;2.90;71.90
81311;DHT22;70779;52.506;5.492;2024-01-07T03:00:13;2.90;72.00
81311;DHT22;70779;52.506;5.492;2024-01-07T03:02:39;2.90;72.10
81311;DHT22;70779;52.506;5.492;2024-01-07T03:05:05;2.90;72.20
81311;DHT22;70779;52.506;5.492;2024-01-07T03:07:32;2.90;72.10
81311;DHT22;70779;52.506;5.492;2024-01-07T03:09:58;2.90;72.20
81311;DHT22;70779;52.506;5.492;2024-01-07T03:12:24;2.90;72.20
81311;DHT22;70779;52.506;5.492;2024-01-07T03:14:50;2.90;72.10
81311;DHT22;70779;52.506;5.492;2024-01-07T03:17:16;2.90;72.10
81311;DHT22;70779;52.506;5.492;2024-01-07T03:19:43;2.80;72.10
81311;DHT22;70779;52.506;5.492;2024-01-07T03:22:09;2.80;72.00
81311;DHT22;70779;52.506;5.492;2024-01-07T03:24:35;2.80;72.10
81311;DHT22;70779;52.506;5.492;2024-01-07T03:27:01;2.80;72.30
81311;DHT22;70779;52.506;5.492;2024-01-07T03:29:27;2.80;72.20
81311;DHT22;70779;52.506;5.492;2024-01-07T03:31:53;2.80;72.10
81311;DHT22;70779;52.506;5.492;2024-01-07T03:34:20;2.80;72.20
81311;DHT22;70779;52.506;5.492;2024-01-07T03:36:46;2.80;72.20
81311;DHT22;70779;52.506;5.492;2024-01-07T03:39:12;2.80;72.20
81311;DHT22;70779;52.506;5.492;2024-01-07T03:41:38;2.80;72.00
81311;DHT22;70779;52.506;5.492;2024-01-07T03:44:04;2.80;71.90
81311;DHT22;70779;52.506;5.492;2024-01-07T03:46:30;2.80;71.90
81311;DHT22;70779;52.506;5.492;2024-01-07T03:48:56;2.80;71.80
81311;DHT22;70779;52.506;5.492;2024-01-07T03:51:22;2.90;71.60
81311;DHT22;70779;52.506;5.492;2024-01-07T03:53:48;2.90;71.50
81311;DHT22;70779;52.506;5.492;2024-01-07T03:56:14;2.90;71.30
81311;DHT22;70779;52.506;5.492;2024-01-07T03:58:41;2.90;71.20
81311;DHT22;70779;52.506;5.492;2024-01-07T04:01:07;3.00;71.20
81311;DHT22;70779;52.506;5.492;2024-01-07T04:03:33;3.00;70.70
81311;DHT22;70779;52.506;5.492;2024-01-07T04:05:59;2.90;70.80
81311;DHT22;70779;52.506;5.492;2024-01-07T04:08:25;3.00;70.90
81311;DHT22;70779;52.506;5.492;2024-01-07T04:10:51;3.00;70.70
81311;DHT22;70779;52.506;5.492;2024-01-07T04:13:17;3.00;70.60
81311;DHT22;70779;52.506;5.492;2024-01-07T04:15:43;3.00;70.50
81311;DHT22;70779;52.506;5.492;2024-01-07T04:18:09;3.00;70.20
81311;DHT22;70779;52.506;5.492;2024-01-07T04:20:35;3.00;70.00
81311;DHT22;70779;52.506;5.492;2024-01-07T04:23:02;3.10;69.60
81311;DHT22;70779;52.506;5.492;2024-01-07T04:25:28;3.00;69.80
81311;DHT22;70779;52.506;5.492;2024-01-07T04:27:54;3.10;69.70
81311;DHT22;70779;52.506;5.492;2024-01-07T04:30:20;3.10;69.70
81311;DHT22;70779;52.506;5.492;2024-01-07T04:32:46;3.10;69.80
81311;DHT22;70779;52.506;5.492;2024-01-07T04:35:12;3.10;69.50
81311;DHT22;70779;52.506;5.492;2024-01-07T04:37:38;3.10;69.40
81311;DHT22;70779;52.506;5.492;2024-01-07T04:40:05;3.10;69.20
81311;DHT22;70779;52.506;5.492;2024-01-07T04:42:31;3.00;69.30
81311;DHT22;70779;52.506;5.492;2024-01-07T04:44:57;3.10;69.20
81311;DHT22;70779;52.506;5.492;2024-01-07T04:47:31;3.10;69.10
81311;DHT22;70779;52.506;5.492;2024-01-07T04:49:58;3.10;69.20
81311;DHT22;70779;52.506;5.492;2024-01-07T04:52:24;3.10;69.20
81311;DHT22;70779;52.506;5.492;2024-01-07T04:54:54;3.10;69.10
81311;DHT22;70779;52.506;5.492;2024-01-07T04:57:21;3.10;69.10
81311;DHT22;70779;52.506;5.492;2024-01-07T04:59:48;3.10;69.10
81311;DHT22;70779;52.506;5.492;2024-01-07T05:02:15;3.10;69.20
81311;DHT22;70779;52.506;5.492;2024-01-07T05:04:41;3.10;69.00
81311;DHT22;70779;52.506;5.492;2024-01-07T05:07:08;3.20;68.80
81311;DHT22;70779;52.506;5.492;2024-01-07T05:09:34;3.10;68.70
81311;DHT22;70779;52.506;5.492;2024-01-07T05:12:00;3.10;68.30
81311;DHT22;70779;52.506;5.492;2024-01-07T05:14:27;3.10;68.10
81311;DHT22;70779;52.506;5.492;2024-01-07T05:16:53;3.10;67.90
81311;DHT22;70779;52.506;5.492;2024-01-07T05:19:20;3.10;67.70
81311;DHT22;70779;52.506;5.492;2024-01-07T05:21:46;3.10;67.70
81311;DHT22;70779;52.506;5.492;2024-01-07T05:24:12;3.00;67.90
81311;DHT22;70779;52.506;5.492;2024-01-07T05:26:42;3.00;67.70
81311;DHT22;70779;52.506;5.492;2024-01-07T05:29:09;3.00;68.00
81311;DHT22;70779;52.506;5.492;2024-01-07T05:31:35;3.00;68.20
81311;DHT22;70779;52.506;5.492;2024-01-07T05:34:01;3.00;67.70
81311;DHT22;70779;52.506;5.492;2024-01-07T05:36:27;3.10;67.50
81311;DHT22;70779;52.506;5.492;2024-01-07T05:38:53;3.00;67.10
81311;DHT22;70779;52.506;5.492;2024-01-07T05:41:19;3.00;67.30
81311;DHT22;70779;52.506;5.492;2024-01-07T05:43:46;3.00;67.10
81311;DHT22;70779;52.506;5.492;2024-01-07T05:46:12;3.00;66.90
81311;DHT22;70779;52.506;5.492;2024-01-07T05:48:46;3.00;67.10
81311;DHT22;70779;52.506;5.492;2024-01-07T05:51:13;3.00;67.30
81311;DHT22;70779;52.506;5.492;2024-01-07T05:53:40;3.00;67.40
81311;DHT22;70779;52.506;5.492;2024-01-07T05:56:06;3.00;67.30
81311;DHT22;70779;52.506;5.492;2024-01-07T05:58:32;3.00;67.50
81311;DHT22;70779;52.506;5.492;2024-01-07T06:00:58;3.00;67.50
81311;DHT22;70779;52.506;5.492;2024-01-07T06:03:24;3.00;67.30
81311;DHT22;70779;52.506;5.492;2024-01-07T06:05:50;3.00;67.50
81311;DHT22;70779;52.506;5.492;2024-01-07T06:08:16;3.00;67.50
81311;DHT22;70779;52.506;5.492;2024-01-07T06:10:42;3.00;67.60
81311;DHT22;70779;52.506;5.492;2024-01-07T06:13:08;3.00;67.50
81311;DHT22;70779;52.506;5.492;2024-01-07T06:15:34;3.00;67.00
81311;DHT22;70779;52.506;5.492;2024-01-07T06:18:00;3.00;67.00
81311;DHT22;70779;52.506;5.492;2024-01-07T06:20:26;2.90;66.80
81311;DHT22;70779;52.506;5.492;2024-01-07T06:22:53;2.90;66.80
81311;DHT22;70779;52.506;5.492;2024-01-07T06:25:19;2.90;66.90
81311;DHT22;70779;52.506;5.492;2024-01-07T06:27:45;2.90;66.80
81311;DHT22;70779;52.506;5.492;2024-01-07T06:30:11;2.80;66.90
81311;DHT22;70779;52.506;5.492;2024-01-07T06:32:37;2.80;66.90
81311;DHT22;70779;52.506;5.492;2024-01-07T06:35:03;2.80;67.00
81311;DHT22;70779;52.506;5.492;2024-01-07T06:37:30;2.80;67.20
81311;DHT22;70779;52.506;5.492;2024-01-07T06:39:56;2.90;67.10
81311;DHT22;70779;52.506;5.492;2024-01-07T06:42:24;2.90;66.90
81311;DHT22;70779;52.506;5.492;2024-01-07T06:44:50;2.90;66.40
81311;DHT22;70779;52.506;5.492;2024-01-07T06:47:16;2.90;66.50
81311;DHT22;70779;52.506;5.492;2024-01-07T06:49:42;2.90;66.20
81311;DHT22;70779;52.506;5.492;2024-01-07T06:52:08;2.90;66.20
81311;DHT22;70779;52.506;5.492;2024-01-07T06:54:35;2.90;65.90
81311;DHT22;70779;52.506;5.492;2024-01-07T06:57:01;2.90;65.60
81311;DHT22;70779;52.506;5.492;2024-01-07T06:59:27;2.90;65.50
81311;DHT22;70779;52.506;5.492;2024-01-07T07:01:53;2.80;65.70
81311;DHT22;70779;52.506;5.492;2024-01-07T07:04:21;2.80;65.30
81311;DHT22;70779;52.506;5.492;2024-01-07T07:06:47;2.80;65.30
81311;DHT22;70779;52.506;5.492;2024-01-07T07:09:13;2.80;65.60
81311;DHT22;70779;52.506;5.492;2024-01-07T07:11:41;2.80;65.60
81311;DHT22;70779;52.506;5.492;2024-01-07T07:14:07;2.80;65.50
81311;DHT22;70779;52.506;5.492;2024-01-07T07:16:33;2.80;65.00
81311;DHT22;70779;52.506;5.492;2024-01-07T07:18:59;2.80;65.20
81311;DHT22;70779;52.506;5.492;2024-01-07T07:21:25;2.80;65.40
81311;DHT22;70779;52.506;5.492;2024-01-07T07:23:53;2.80;65.10
81311;DHT22;70779;52.506;5.492;2024-01-07T07:26:19;2.80;65.10
81311;DHT22;70779;52.506;5.492;2024-01-07T07:28:45;2.80;64.70
81311;DHT22;70779;52.506;5.492;2024-01-07T07:31:11;2.80;64.50
81311;DHT22;70779;52.506;5.492;2024-01-07T07:33:41;2.70;64.50
81311;DHT22;70779;52.506;5.492;2024-01-07T07:36:07;2.80;63.60
81311;DHT22;70779;52.506;5.492;2024-01-07T07:38:33;2.70;63.40
81311;DHT22;70779;52.506;5.492;2024-01-07T07:40:59;2.70;63.40
81311;DHT22;70779;52.506;5.492;2024-01-07T07:43:26;2.70;63.00
81311;DHT22;70779;52.506;5.492;2024-01-07T07:45:52;2.60;63.20
81311;DHT22;70779;52.506;5.492;2024-01-07T07:48:19;2.60;63.00
81311;DHT22;70779;52.506;5.492;2024-01-07T07:50:45;2.50;63.20
81311;DHT22;70779;52.506;5.492;2024-01-07T07:53:11;2.50;63.20
81311;DHT22;70779;52.506;5.492;2024-01-07T07:55:37;2.50;63.60
81311;DHT22;70779;52.506;5.492;2024-01-07T07:58:03;2.50;63.90
81311;DHT22;70779;52.506;5.492;2024-01-07T08:00:29;2.50;64.30
81311;DHT22;70779;52.506;5.492;2024-01-07T08:02:55;2.60;64.30
81311;DHT22;70779;52.506;5.492;2024-01-07T08:05:21;2.60;64.20
81311;DHT22;70779;52.506;5.492;2024-01-07T08:07:47;2.70;64.10
81311;DHT22;70779;52.506;5.492;2024-01-07T08:10:13;2.60;63.90
81311;DHT22;70779;52.506;5.492;2024-01-07T08:12:39;2.60;63.80
81311;DHT22;70779;52.506;5.492;2024-01-07T08:15:06;2.50;63.90
81311;DHT22;70779;52.506;5.492;2024-01-07T08:17:32;2.60;63.60
81311;DHT22;70779;52.506;5.492;2024-01-07T08:19:58;2.60;63.50
81311;DHT22;70779;52.506;5.492;2024-01-07T08:22:24;2.60;63.70
81311;DHT22;70779;52.506;5.492;2024-01-07T08:24:50;2.60;63.30
81311;DHT22;70779;52.506;5.492;2024-01-07T08:27:17;2.60;63.00
81311;DHT22;70779;52.506;5.492;2024-01-07T08:29:43;2.60;63.30
81311;DHT22;70779;52.506;5.492;2024-01-07T08:32:10;2.70;63.60
81311;DHT22;70779;52.506;5.492;2024-01-07T08:34:36;2.70;63.30
81311;DHT22;70779;52.506;5.492;2024-01-07T08:37:03;2.70;63.10
81311;DHT22;70779;52.506;5.492;2024-01-07T08:39:29;2.70;62.90
81311;DHT22;70779;52.506;5.492;2024-01-07T08:41:55;2.70;63.40
81311;DHT22;70779;52.506;5.492;2024-01-07T08:44:22;2.70;63.70
81311;DHT22;70779;52.506;5.492;2024-01-07T08:46:48;2.70;63.20
81311;DHT22;70779;52.506;5.492;2024-01-07T08:49:14;2.70;63.30
81311;DHT22;70779;52.506;5.492;2024-01-07T08:51:40;2.70;63.00
81311;DHT22;70779;52.506;5.492;2024-01-07T08:54:06;2.70;63.00
81311;DHT22;70779;52.506;5.492;2024-01-07T08:56:32;2.70;63.20
81311;DHT22;70779;52.506;5.492;2024-01-07T08:58:58;2.70;63.10
81311;DHT22;70779;52.506;5.492;2024-01-07T09:01:25;2.70;62.90
81311;DHT22;70779;52.506;5.492;2024-01-07T09:03:51;2.70;62.80
81311;DHT22;70779;52.506;5.492;2024-01-07T09:06:17;2.80;62.90
81311;DHT22;70779;52.506;5.492;2024-01-07T09:08:43;2.80;63.00
81311;DHT22;70779;52.506;5.492;2024-01-07T09:11:09;2.90;62.60
81311;DHT22;70779;52.506;5.492;2024-01-07T09:13:38;2.90;62.20
81311;DHT22;70779;52.506;5.492;2024-01-07T09:16:04;2.90;62.20
81311;DHT22;70779;52.506;5.492;2024-01-07T09:18:31;3.00;62.40
81311;DHT22;70779;52.506;5.492;2024-01-07T09:20:57;3.00;62.30
81311;DHT22;70779;52.506;5.492;2024-01-07T09:23:23;3.00;62.30
81311;DHT22;70779;52.506;5.492;2024-01-07T09:25:49;3.10;62.20
81311;DHT22;70779;52.506;5.492;2024-01-07T09:28:15;3.10;61.90
81311;DHT22;70779;52.506;5.492;2024-01-07T09:30:41;3.20;61.50
81311;DHT22;70779;52.506;5.492;2024-01-07T09:33:07;3.20;61.60
81311;DHT22;70779;52.506;5.492;2024-01-07T09:35:33;3.30;61.90
81311;DHT22;70779;52.506;5.492;2024-01-07T09:37:59;3.50;61.90
81311;DHT22;70779;52.506;5.492;2024-01-07T09:40:25;3.90;61.20
81311;DHT22;70779;52.506;5.492;2024-01-07T09:42:51;4.20;59.90
81311;DHT22;70779;52.506;5.492;2024-01-07T09:45:18;4.60;60.10
81311;DHT22;70779;52.506;5.492;2024-01-07T09:47:44;5.00;58.60
81311;DHT22;70779;52.506;5.492;2024-01-07T09:50:11;5.30;57.40
81311;DHT22;70779;52.506;5.492;2024-01-07T09:52:38;5.30;56.40
81311;DHT22;70779;52.506;5.492;2024-01-07T09:55:09;5.00;56.00
81311;DHT22;70779;52.506;5.492;2024-01-07T09:57:40;4.70;56.60
81311;DHT22;70779;52.506;5.492;2024-01-07T10:00:09;4.30;56.70
81311;DHT22;70779;52.506;5.492;2024-01-07T10:02:39;4.10;57.20
81311;DHT22;70779;52.506;5.492;2024-01-07T10:05:07;3.90;57.70
81311;DHT22;70779;52.506;5.492;2024-01-07T10:07:33;3.60;57.50
81311;DHT22;70779;52.506;5.492;2024-01-07T10:10:16;3.50;58.00
81311;DHT22;70779;52.506;5.492;2024-01-07T10:12:46;3.30;58.60
81311;DHT22;70779;52.506;5.492;2024-01-07T10:15:13;3.30;58.50
81311;DHT22;70779;52.506;5.492;2024-01-07T10:17:42;3.10;58.60
81311;DHT22;70779;52.506;5.492;2024-01-07T10:20:09;3.10;58.70
81311;DHT22;70779;52.506;5.492;2024-01-07T10:22:37;3.00;59.00
81311;DHT22;70779;52.506;5.492;2024-01-07T10:25:04;3.00;59.30
81311;DHT22;70779;52.506;5.492;2024-01-07T10:27:35;3.00;59.50
81311;DHT22;70779;52.506;5.492;2024-01-07T10:30:02;2.90;59.50
81311;DHT22;70779;52.506;5.492;2024-01-07T10:32:29;3.00;59.10
81311;DHT22;70779;52.506;5.492;2024-01-07T10:34:57;3.00;58.80
81311;DHT22;70779;52.506;5.492;2024-01-07T10:37:24;3.00;58.70
81311;DHT22;70779;52.506;5.492;2024-01-07T10:39:51;2.90;58.90
81311;DHT22;70779;52.506;5.492;2024-01-07T10:42:18;2.90;58.70
81311;DHT22;70779;52.506;5.492;2024-01-07T10:44:44;2.90;58.80
81311;DHT22;70779;52.506;5.492;2024-01-07T10:47:10;2.90;59.00
81311;DHT22;70779;52.506;5.492;2024-01-07T10:49:40;2.90;59.00
81311;DHT22;70779;52.506;5.492;2024-01-07T10:52:10;2.90;58.90
81311;DHT22;70779;52.506;5.492;2024-01-07T10:54:37;2.80;58.40
81311;DHT22;70779;52.506;5.492;2024-01-07T10:57:09;2.80;59.00
81311;DHT22;70779;52.506;5.492;2024-01-07T10:59:38;2.80;59.60
81311;DHT22;70779;52.506;5.492;2024-01-07T11:02:05;2.80;58.90
81311;DHT22;70779;52.506;5.492;2024-01-07T11:07:29;2.90;59.20
81311;DHT22;70779;52.506;5.492;2024-01-07T11:10:26;2.90;59.20
81311;DHT22;70779;52.506;5.492;2024-01-07T11:12:56;2.90;59.10
81311;DHT22;70779;52.506;5.492;2024-01-07T11:18:20;3.00;59.10
81311;DHT22;70779;52.506;5.492;2024-01-07T11:20:47;3.10;59.20
81311;DHT22;70779;52.506;5.492;2024-01-07T11:23:27;3.10;59.30
81311;DHT22;70779;52.506;5.492;2024-01-07T11:25:57;3.10;59.50
81311;DHT22;70779;52.506;5.492;2024-01-07T11:28:43;3.20;58.60
81311;DHT22;70779;52.506;5.492;2024-01-07T11:31:09;3.20;58.80
81311;DHT22;70779;52.506;5.492;2024-01-07T11:33:39;3.20;58.40
81311;DHT22;70779;52.506;5.492;2024-01-07T11:36:07;3.20;58.50
81311;DHT22;70779;52.506;5.492;2024-01-07T11:38:36;3.30;58.50
81311;DHT22;70779;52.506;5.492;2024-01-07T11:41:09;3.30;58.00
81311;DHT22;70779;52.506;5.492;2024-01-07T11:43:36;3.30;58.10
81311;DHT22;70779;52.506;5.492;2024-01-07T11:46:03;3.30;57.90
81311;DHT22;70779;52.506;5.492;2024-01-07T11:48:29;3.30;58.30
81311;DHT22;70779;52.506;5.492;2024-01-07T11:50:55;3.30;58.90
81311;DHT22;70779;52.506;5.492;2024-01-07T11:53:21;3.40;57.90
81311;DHT22;70779;52.506;5.492;2024-01-07T11:55:47;3.50;57.90
81311;DHT22;70779;52.506;5.492;2024-01-07T11:58:13;3.60;57.80
81311;DHT22;70779;52.506;5.492;2024-01-07T12:00:39;3.70;57.60
81311;DHT22;70779;52.506;5.492;2024-01-07T12:03:05;3.90;57.40
81311;DHT22;70779;52.506;5.492;2024-01-07T12:05:31;3.90;57.10
81311;DHT22;70779;52.506;5.492;2024-01-07T12:07:59;3.90;56.70
81311;DHT22;70779;52.506;5.492;2024-01-07T12:10:25;3.90;56.20
81311;DHT22;70779;52.506;5.492;2024-01-07T12:12:52;3.80;55.80
81311;DHT22;70779;52.506;5.492;2024-01-07T12:15:18;3.70;55.60
81311;DHT22;70779;52.506;5.492;2024-01-07T12:18:01;3.60;56.10
81311;DHT22;70779;52.506;5.492;2024-01-07T12:20:28;3.70;55.70
81311;DHT22;70779;52.506;5.492;2024-01-07T12:22:57;3.70;55.80
81311;DHT22;70779;52.506;5.492;2024-01-07T12:25:30;3.70;55.40
81311;DHT22;70779;52.506;5.492;2024-01-07T12:27:56;3.70;55.60
81311;DHT22;70779;52.506;5.492;2024-01-07T12:30:24;3.70;55.60
81311;DHT22;70779;52.506;5.492;2024-01-07T12:32:53;3.70;54.90
81311;DHT22;70779;52.506;5.492;2024-01-07T12:35:19;3.70;55.20
81311;DHT22;70779;52.506;5.492;2024-01-07T12:37:45;3.70;55.30
81311;DHT22;70779;52.506;5.492;2024-01-07T12:40:11;3.70;55.10
81311;DHT22;70779;52.506;5.492;2024-01-07T12:42:39;3.70;55.30
81311;DHT22;70779;52.506;5.492;2024-01-07T12:45:12;3.80;55.30
81311;DHT22;70779;52.506;5.492;2024-01-07T12:47:41;3.90;55.50
81311;DHT22;70779;52.506;5.492;2024-01-07T12:50:09;3.90;55.60
81311;DHT22;70779;52.506;5.492;2024-01-07T12:52:38;4.00;55.40
81311;DHT22;70779;52.506;5.492;2024-01-07T12:55:08;4.00;54.90
81311;DHT22;70779;52.506;5.492;2024-01-07T12:57:34;4.10;55.00
81311;DHT22;70779;52.506;5.492;2024-01-07T13:00:02;4.10;55.00
81311;DHT22;70779;52.506;5.492;2024-01-07T13:02:31;4.20;54.90
81311;DHT22;70779;52.506;5.492;2024-01-07T13:04:57;4.20;55.00
81311;DHT22;70779;52.506;5.492;2024-01-07T13:07:23;4.10;55.00
81311;DHT22;70779;52.506;5.492;2024-01-07T13:09:49;4.10;54.80
81311;DHT22;70779;52.506;5.492;2024-01-07T13:12:15;4.10;54.50
81311;DHT22;70779;52.506;5.492;2024-01-07T13:14:41;4.10;54.80
81311;DHT22;70779;52.506;5.492;2024-01-07T13:17:08;4.10;55.10
81311;DHT22;70779;52.506;5.492;2024-01-07T13:19:34;4.00;54.60
81311;DHT22;70779;52.506;5.492;2024-01-07T13:22:00;4.00;54.60
81311;DHT22;70779;52.506;5.492;2024-01-07T13:24:27;3.90;54.80
81311;DHT22;70779;52.506;5.492;2024-01-07T13:26:53;3.90;54.70
81311;DHT22;70779;52.506;5.492;2024-01-07T13:29:19;3.70;54.80
81311;DHT22;70779;52.506;5.492;2024-01-07T13:31:45;3.50;55.10
81311;DHT22;70779;52.506;5.492;2024-01-07T13:34:11;3.50;55.30
81311;DHT22;70779;52.506;5.492;2024-01-07T13:36:40;3.30;55.60
81311;DHT22;70779;52.506;5.492;2024-01-07T13:39:06;3.30;55.70
81311;DHT22;70779;52.506;5.492;2024-01-07T13:41:34;3.20;56.00
81311;DHT22;70779;52.506;5.492;2024-01-07T13:44:01;3.10;56.30
81311;DHT22;70779;52.506;5.492;2024-01-07T13:46:29;3.10;56.80
81311;DHT22;70779;52.506;5.492;2024-01-07T13:48:55;3.10;57.10
81311;DHT22;70779;52.506;5.492;2024-01-07T13:51:21;3.10;56.90
81311;DHT22;70779;52.506;5.492;2024-01-07T13:53:47;3.10;56.60
81311;DHT22;70779;52.506;5.492;2024-01-07T13:56:13;3.10;56.50
81311;DHT22;70779;52.506;5.492;2024-01-07T13:58:39;3.10;57.10
81311;DHT22;70779;52.506;5.492;2024-01-07T14:01:05;3.10;57.10
81311;DHT22;70779;52.506;5.492;2024-01-07T14:03:32;3.10;57.30
81311;DHT22;70779;52.506;5.492;2024-01-07T14:05:59;3.10;57.70
81311;DHT22;70779;52.506;5.492;2024-01-07T14:08:26;3.00;57.80
81311;DHT22;70779;52.506;5.492;2024-01-07T14:10:52;3.10;57.50
81311;DHT22;70779;52.506;5.492;2024-01-07T14:13:18;3.10;57.50
81311;DHT22;70779;52.506;5.492;2024-01-07T14:15:45;3.10;57.60
81311;DHT22;70779;52.506;5.492;2024-01-07T14:18:11;3.10;57.10
81311;DHT22;70779;52.506;5.492;2024-01-07T14:20:41;3.10;57.40
81311;DHT22;70779;52.506;5.492;2024-01-07T14:23:08;3.10;57.70
81311;DHT22;70779;52.506;5.492;2024-01-07T14:25:35;3.10;57.90
81311;DHT22;70779;52.506;5.492;2024-01-07T14:28:01;3.10;57.80
81311;DHT22;70779;52.506;5.492;2024-01-07T14:30:29;3.10;58.00
81311;DHT22;70779;52.506;5.492;2024-01-07T14:32:55;3.00;58.40
81311;DHT22;70779;52.506;5.492;2024-01-07T14:35:22;3.00;58.60
81311;DHT22;70779;52.506;5.492;2024-01-07T14:37:52;3.00;58.50
81311;DHT22;70779;52.506;5.492;2024-01-07T14:40:21;3.00;58.60
81311;DHT22;70779;52.506;5.492;2024-01-07T14:42:47;3.00;58.70
81311;DHT22;70779;52.506;5.492;2024-01-07T14:45:13;3.00;59.00
81311;DHT22;70779;52.506;5.492;2024-01-07T14:47:39;3.00;59.10
81311;DHT22;70779;52.506;5.492;2024-01-07T14:50:05;3.00;58.90
81311;DHT22;70779;52.506;5.492;2024-01-07T14:52:32;3.00;58.90
81311;DHT22;70779;52.506;5.492;2024-01-07T14:54:58;3.00;58.70
81311;DHT22;70779;52.506;5.492;2024-01-07T14:57:24;3.00;58.40
81311;DHT22;70779;52.506;5.492;2024-01-07T14:59:50;3.00;58.60
81311;DHT22;70779;52.506;5.492;2024-01-07T15:02:16;3.00;58.70
81311;DHT22;70779;52.506;5.492;2024-01-07T15:04:42;3.00;58.90
81311;DHT22;70779;52.506;5.492;2024-01-07T15:07:09;3.00;59.10
81311;DHT22;70779;52.506;5.492;2024-01-07T15:09:38;2.90;59.30
81311;DHT22;70779;52.506;5.492;2024-01-07T15:12:05;3.00;59.40
81311;DHT22;70779;52.506;5.492;2024-01-07T15:14:31;3.00;59.40
81311;DHT22;70779;52.506;5.492;2024-01-07T15:16:57;2.90;59.60
81311;DHT22;70779;52.506;5.492;2024-01-07T15:19:24;2.90;59.70
81311;DHT22;70779;52.506;5.492;2024-01-07T15:21:50;2.90;59.80
81311;DHT22;70779;52.506;5.492;2024-01-07T15:24:17;2.80;60.00
81311;DHT22;70779;52.506;5.492;2024-01-07T15:26:43;2.80;60.10
81311;DHT22;70779;52.506;5.492;2024-01-07T15:29:09;2.80;60.30
81311;DHT22;70779;52.506;5.492;2024-01-07T15:31:35;2.70;60.50
81311;DHT22;70779;52.506;5.492;2024-01-07T15:34:01;2.70;60.70
81311;DHT22;70779;52.506;5.492;2024-01-07T15:36:27;2.60;60.90
81311;DHT22;70779;52.506;5.492;2024-01-07T15:38:53;2.50;61.10
81311;DHT22;70779;52.506;5.492;2024-01-07T15:41:20;2.50;61.40
81311;DHT22;70779;52.506;5.492;2024-01-07T15:43:46;2.50;61.60
81311;DHT22;70779;52.506;5.492;2024-01-07T15:46:12;2.40;61.80
81311;DHT22;70779;52.506;5.492;2024-01-07T15:48:38;2.40;62.10